KSUX

Sioux Gateway / Col Bud Day Field Airport

Sioux City, Iowa, USA
METAR KSUX 191452Z 11007KT 10SM CLR M01/M04 A2967 RMK AO2 SLP059 T10111039 55005
Observed Flight Rules
Jan-19 @ 14:52 UTC (34 minutes ago) Visual Flight Rules
Wind Visibility Clouds
110° at 7 knots 10 miles
  • Clear skies
Temperatures Readings
Current -1°C / 30°F
Dewpoint -4°C / 25°F
Humidity 80%
Altimeter 29.67" Hg
Pressure 1005.9 hPa
Elevation 338
METAR KSUX 191452Z 11007KT 10SM CLR M01/M04 A2967 RMK AO2 SLP059 T10111039 55005
Observed Flight Rules
Jan-19 @ 14:52 UTC
(34 minutes ago)
VFR
Wind Visibility
110° at 7 knots 10 miles
Clouds
  • Clear skies
Temperature Dewpoint
-1°C / 30°F -4°C / 25°F
Humidity Altimeter Pressure
80% 29.67" Hg 1005.9 hPa